Du har inga inställningar för hoppväder.nu

Hoppväder.nu

Senast uppdaterat 04:04

UTC-tid

2021-10-25 kl. 02:04


Sol och måne

Solen går upp 8:12 och går ner 18:15 (beräknade cirkatider)
Nästa fullmåne blir om 25 dagar (2021-11-19)

METAR

ESOE (Örebro)
(14 minuter sedan)
ESOE 250150Z 19006KT CAVOK 06/04 Q1016=



ESOK (Karlstad)
(14 minuter sedan)
ESOK 250150Z AUTO 21009KT 9999 FEW010/// SCT013/// 08/07 Q1014=



ESGR (Skövde)
(14 minuter sedan)
ESGR 250150Z AUTO 17006KT 9999 OVC031/// 06/04 Q1016=



ESSD (Borlänge)
(14 minuter sedan)
ESSD 250150Z AUTO 24011KT 9999 OVC015/// 09/06 Q1012=



ESOW (Västerås)
(14 minuter sedan)
ESOW 250150Z AUTO 21010KT 9999 NCD 08/04 Q1016=



TAF

ESOE (Örebro)
(1594 minuter sedan)
ESOE 242330Z 2500/2508 20012KT 9999 SCT045=



ESOK (Karlstad)
ESOK



ESGR (Skövde)
ESGR



ESSD (Borlänge)
ESSD



ESOW (Västerås)
ESOW





Kodnycklar till TAF och METAR






LHP

(Örebro är område se32g i Delområde 4)

Prognos är inte uppdaterad






Preliminär prognos